Time;durP1;ratioP1;P1;durP2;ratioP2;P2;SDS_P1;SDS_P2;PMS_P1;PMS_P2;Temp;Humidity;BMP_temperature;BMP_pressure;BME280_temperature;BME280_humidity;BME280_pressure;Samples;Min_cycle;Max_cycle;Signal;HPM_P1;HPM_P2
2022/05/12 00:02:05;;;;;;;;;;;14.10;99.90;;;;;;5023362;28;20296;-68
2022/05/12 00:04:32;;;;;;;;;;;14.00;99.90;;;;;;5018363;28;20012;-68
2022/05/12 00:07:00;;;;;;;;;;;14.00;99.90;;;;;;5015140;28;20031;-68
2022/05/12 00:09:27;;;;;;;;;;;13.90;99.90;;;;;;5019772;28;19925;-69
2022/05/12 00:11:54;;;;;;;;;;;13.90;99.90;;;;;;5026865;28;20360;-69
2022/05/12 00:14:21;;;;;;;;;;;13.90;99.90;;;;;;5026147;28;19933;-69
2022/05/12 00:16:48;;;;;;;;;;;13.90;99.90;;;;;;5025503;28;19925;-69
2022/05/12 00:19:14;;;;;;;;;;;14.00;99.90;;;;;;5013627;28;19925;-69
2022/05/12 00:21:41;;;;;;;;;;;14.00;99.90;;;;;;5019189;28;19924;-69
2022/05/12 00:24:09;;;;;;;;;;;14.00;99.90;;;;;;5028948;28;19925;-70
2022/05/12 00:26:37;;;;;;;;;;;14.00;99.90;;;;;;5012899;28;19976;-69
2022/05/12 00:29:05;;;;;;;;;;;14.00;99.90;;;;;;5013369;28;19943;-70
2022/05/12 00:31:33;;;;;;;;;;;13.90;99.90;;;;;;5017297;28;19925;-69
2022/05/12 00:34:02;;;;;;;;;;;13.90;99.90;;;;;;5010390;28;19925;-69
2022/05/12 00:36:28;;;;;;;;;;;13.90;99.90;;;;;;5012552;28;20395;-70
2022/05/12 00:38:55;;;;;;;;;;;13.80;99.90;;;;;;5013018;28;19933;-70
2022/05/12 00:41:23;;;;;;;;;;;13.80;99.90;;;;;;5012187;28;19931;-70
2022/05/12 00:43:51;;;;;;;;;;;13.70;99.90;;;;;;5011313;28;19925;-70
2022/05/12 00:46:19;;;;;;;;;;;13.70;99.90;;;;;;5013499;28;19933;-70
2022/05/12 00:48:47;;;;;;;;;;;13.70;99.90;;;;;;5012891;28;19930;-70
2022/05/12 00:51:14;;;;;;;;;;;13.70;99.90;;;;;;5013324;28;19973;-70
2022/05/12 00:53:41;;;;;;;;;;;13.70;99.90;;;;;;5010633;28;19932;-71
2022/05/12 00:56:09;;;;;;;;;;;13.80;99.90;;;;;;5019476;28;20008;-70
2022/05/12 00:58:37;;;;;;;;;;;13.80;99.90;;;;;;5012734;28;19930;-70
2022/05/12 01:01:06;;;;;;;;;;;13.80;99.90;;;;;;5014574;28;19932;-70
2022/05/12 01:03:33;;;;;;;;;;;13.80;99.90;;;;;;5010709;28;19925;-70
2022/05/12 01:06:02;;;;;;;;;;;13.80;99.90;;;;;;5011759;28;20000;-70
2022/05/12 01:11:13;;;;;;;;;;;13.80;99.90;;;;;;5032434;28;19921;-69
2022/05/12 01:13:39;;;;;;;;;;;13.70;99.90;;;;;;5024275;28;19925;-70
2022/05/12 01:16:07;;;;;;;;;;;13.70;99.90;;;;;;5020488;28;19925;-69
2022/05/12 01:18:37;;;;;;;;;;;13.60;99.90;;;;;;5023159;28;20031;-70
2022/05/12 01:21:04;;;;;;;;;;;13.50;99.90;;;;;;5020919;28;20027;-71
2022/05/12 01:23:33;;;;;;;;;;;13.40;99.90;;;;;;5022158;28;19940;-70
2022/05/12 01:26:01;;;;;;;;;;;13.40;99.90;;;;;;5021201;28;19925;-70
2022/05/12 01:28:28;;;;;;;;;;;13.30;99.90;;;;;;5024793;28;20008;-70
2022/05/12 01:30:55;;;;;;;;;;;13.20;99.90;;;;;;5021398;28;19933;-70
2022/05/12 01:33:22;;;;;;;;;;;13.20;99.90;;;;;;5024291;28;19932;-70
2022/05/12 01:35:49;;;;;;;;;;;13.20;99.90;;;;;;5022329;28;19925;-70
2022/05/12 01:38:15;;;;;;;;;;;13.10;99.90;;;;;;5018476;28;19947;-70
2022/05/12 01:40:44;;;;;;;;;;;13.10;99.90;;;;;;5022054;28;19925;-70
2022/05/12 01:43:11;;;;;;;;;;;13.10;99.90;;;;;;5015488;28;19929;-70
2022/05/12 01:45:38;;;;;;;;;;;13.10;99.90;;;;;;5022211;28;20380;-70
2022/05/12 01:48:05;;;;;;;;;;;13.00;99.90;;;;;;5019100;28;20016;-69
2022/05/12 01:50:32;;;;;;;;;;;13.00;99.90;;;;;;5021925;28;20016;-70
2022/05/12 01:52:59;;;;;;;;;;;12.90;99.90;;;;;;5022656;28;19926;-70
2022/05/12 01:55:27;;;;;;;;;;;12.90;99.90;;;;;;5019245;28;19925;-69
2022/05/12 01:57:55;;;;;;;;;;;12.80;99.90;;;;;;5023439;28;19933;-69
2022/05/12 02:00:23;;;;;;;;;;;12.80;99.90;;;;;;5023678;28;19925;-71
2022/05/12 02:02:50;;;;;;;;;;;12.80;99.90;;;;;;5022872;28;20020;-70
2022/05/12 02:05:17;;;;;;;;;;;12.70;99.90;;;;;;5020607;28;19925;-71
2022/05/12 02:07:46;;;;;;;;;;;12.70;99.90;;;;;;5022972;28;19929;-70
2022/05/12 02:10:14;;;;;;;;;;;12.60;99.90;;;;;;5021361;28;20382;-70
2022/05/12 02:12:41;;;;;;;;;;;12.60;99.90;;;;;;5019324;28;20008;-70
2022/05/12 02:15:11;;;;;;;;;;;12.60;99.90;;;;;;5021613;28;19931;-71
2022/05/12 02:17:37;;;;;;;;;;;12.60;99.90;;;;;;5022308;28;20402;-70
2022/05/12 02:20:04;;;;;;;;;;;12.60;99.90;;;;;;5023255;28;20359;-70
2022/05/12 02:22:31;;;;;;;;;;;12.60;99.90;;;;;;5010332;28;20311;-70
2022/05/12 02:24:58;;;;;;;;;;;12.50;99.90;;;;;;5007780;28;19936;-71
2022/05/12 02:27:24;;;;;;;;;;;12.50;99.90;;;;;;5009855;28;19935;-70
2022/05/12 02:29:51;;;;;;;;;;;12.50;99.90;;;;;;5008275;28;20426;-70
2022/05/12 02:32:19;;;;;;;;;;;12.40;99.90;;;;;;5010368;28;19926;-70
2022/05/12 02:34:46;;;;;;;;;;;12.40;99.90;;;;;;5008676;28;19968;-70
2022/05/12 02:37:12;;;;;;;;;;;12.40;99.90;;;;;;5009415;28;20388;-70
2022/05/12 02:39:42;;;;;;;;;;;12.30;99.90;;;;;;5009319;28;19932;-70
2022/05/12 02:42:09;;;;;;;;;;;12.30;99.90;;;;;;4998109;28;19925;-70
2022/05/12 02:44:36;;;;;;;;;;;12.30;99.90;;;;;;5004836;28;19925;-70
2022/05/12 02:47:03;;;;;;;;;;;12.20;99.90;;;;;;5010157;28;19926;-69
2022/05/12 02:49:32;;;;;;;;;;;12.20;99.90;;;;;;5010579;28;19967;-70
2022/05/12 02:51:58;;;;;;;;;;;12.20;99.90;;;;;;5009767;28;19998;-69
2022/05/12 02:54:25;;;;;;;;;;;12.20;99.90;;;;;;5008814;28;19925;-70
2022/05/12 02:56:55;;;;;;;;;;;12.20;99.90;;;;;;5008549;28;20221;-70
2022/05/12 02:59:22;;;;;;;;;;;12.20;99.90;;;;;;5008573;28;19972;-69
2022/05/12 03:01:48;;;;;;;;;;;12.10;99.90;;;;;;5006684;28;19938;-70
2022/05/12 03:04:15;;;;;;;;;;;12.10;99.90;;;;;;5009584;28;20016;-70
2022/05/12 03:06:43;;;;;;;;;;;12.10;99.90;;;;;;5009265;28;20411;-70
2022/05/12 03:09:10;;;;;;;;;;;12.10;99.90;;;;;;5006175;28;19955;-70
2022/05/12 03:11:37;;;;;;;;;;;12.00;99.90;;;;;;5006435;28;19948;-70
2022/05/12 03:14:04;;;;;;;;;;;12.00;99.90;;;;;;5008184;28;19926;-70
2022/05/12 03:16:31;;;;;;;;;;;11.90;99.90;;;;;;5009396;28;20376;-71
2022/05/12 03:18:58;;;;;;;;;;;11.90;99.90;;;;;;5009700;28;19929;-71
2022/05/12 03:21:26;;;;;;;;;;;11.90;99.90;;;;;;5005847;28;19932;-71
2022/05/12 03:23:54;;;;;;;;;;;11.80;99.90;;;;;;5008444;28;19978;-71
2022/05/12 03:26:22;;;;;;;;;;;11.80;99.90;;;;;;5009305;28;19926;-71
2022/05/12 03:28:49;;;;;;;;;;;11.80;99.90;;;;;;5009758;28;19925;-71
2022/05/12 03:31:15;;;;;;;;;;;11.80;99.90;;;;;;5005432;28;19925;-71
2022/05/12 03:33:42;;;;;;;;;;;11.80;99.90;;;;;;5006083;28;20013;-71
2022/05/12 03:36:09;;;;;;;;;;;11.70;99.90;;;;;;5008431;28;20012;-74
2022/05/12 03:38:37;;;;;;;;;;;11.70;99.90;;;;;;5009482;28;19972;-70
2022/05/12 03:41:06;;;;;;;;;;;11.70;99.90;;;;;;4999358;28;20429;-70
2022/05/12 03:46:17;;;;;;;;;;;11.70;99.90;;;;;;5007960;28;19986;-70
2022/05/12 03:48:44;;;;;;;;;;;11.60;99.90;;;;;;5009166;28;19934;-71
2022/05/12 03:51:12;;;;;;;;;;;11.60;99.90;;;;;;5004929;28;20265;-71
2022/05/12 03:53:40;;;;;;;;;;;11.60;99.90;;;;;;5008416;28;19977;-70
2022/05/12 03:56:08;;;;;;;;;;;11.50;99.90;;;;;;5008898;28;19926;-70
2022/05/12 03:58:37;;;;;;;;;;;11.50;99.90;;;;;;5009272;28;19925;-71
2022/05/12 04:01:04;;;;;;;;;;;11.50;99.90;;;;;;5006691;28;19926;-70
2022/05/12 04:03:31;;;;;;;;;;;11.40;99.90;;;;;;5007931;28;19926;-70
2022/05/12 04:05:59;;;;;;;;;;;11.40;99.90;;;;;;5008417;28;19972;-71
2022/05/12 04:08:25;;;;;;;;;;;11.40;99.90;;;;;;5009300;28;20425;-70
2022/05/12 04:10:52;;;;;;;;;;;11.40;99.90;;;;;;5004008;28;19936;-70
2022/05/12 04:13:20;;;;;;;;;;;11.40;99.90;;;;;;5008535;28;19939;-71
2022/05/12 04:15:47;;;;;;;;;;;11.40;99.90;;;;;;5007298;28;19926;-71
2022/05/12 04:18:14;;;;;;;;;;;11.40;99.90;;;;;;5009229;28;20364;-70
2022/05/12 04:20:40;;;;;;;;;;;11.40;99.90;;;;;;5005283;28;19925;-71
2022/05/12 04:23:08;;;;;;;;;;;11.40;99.90;;;;;;5008570;28;19932;-70
2022/05/12 04:25:35;;;;;;;;;;;11.30;99.90;;;;;;5005443;28;19926;-70
2022/05/12 04:28:02;;;;;;;;;;;11.30;99.90;;;;;;5008333;28;20028;-71
2022/05/12 04:30:30;;;;;;;;;;;11.30;99.90;;;;;;5006498;28;19933;-72
2022/05/12 04:35:09;;;;;;;;;;;11.40;99.90;;;;;;5009149;28;19968;-72
2022/05/12 04:35:43;;;;;;;;;;;11.50;99.90;;;;;;5006605;28;20320;-72
2022/05/12 04:38:10;;;;;;;;;;;11.40;99.90;;;;;;5008648;28;19922;-72
2022/05/12 04:40:37;;;;;;;;;;;11.50;99.90;;;;;;5004440;28;20021;-71
2022/05/12 04:43:04;;;;;;;;;;;11.50;99.90;;;;;;5007947;28;19926;-72
2022/05/12 04:45:33;;;;;;;;;;;11.50;99.90;;;;;;5004122;28;19939;-72
2022/05/12 04:47:59;;;;;;;;;;;11.60;99.90;;;;;;5006003;28;19934;-71
2022/05/12 04:50:28;;;;;;;;;;;11.60;99.90;;;;;;5005348;28;19925;-72
2022/05/12 04:52:55;;;;;;;;;;;11.60;99.90;;;;;;5004926;28;19997;-72
2022/05/12 04:55:21;;;;;;;;;;;11.60;99.90;;;;;;5005276;28;19926;-71
2022/05/12 04:57:49;;;;;;;;;;;11.60;99.90;;;;;;5008505;28;20323;-71
2022/05/12 05:00:18;;;;;;;;;;;11.70;99.90;;;;;;5006863;28;20028;-72
2022/05/12 05:02:46;;;;;;;;;;;11.70;99.90;;;;;;4999484;28;19965;-72
2022/05/12 05:05:12;;;;;;;;;;;11.80;99.90;;;;;;4989720;28;20372;-72
2022/05/12 05:07:42;;;;;;;;;;;11.80;99.90;;;;;;4999928;28;20307;-72
2022/05/12 05:10:09;;;;;;;;;;;11.80;99.90;;;;;;5005470;28;20466;-72
2022/05/12 05:12:37;;;;;;;;;;;11.80;99.90;;;;;;5004517;28;19925;-72
2022/05/12 05:15:04;;;;;;;;;;;11.90;99.90;;;;;;4998963;28;19926;-72
2022/05/12 05:17:31;;;;;;;;;;;11.90;99.90;;;;;;5003929;28;19979;-72
2022/05/12 05:19:59;;;;;;;;;;;12.00;99.90;;;;;;5002767;28;19998;-72
2022/05/12 05:22:26;;;;;;;;;;;12.00;99.90;;;;;;5003695;28;19998;-72
2022/05/12 05:24:52;;;;;;;;;;;12.00;99.90;;;;;;5002349;28;19980;-72
2022/05/12 05:27:19;;;;;;;;;;;12.10;99.90;;;;;;5003147;28;19925;-72
2022/05/12 05:29:46;;;;;;;;;;;12.20;99.90;;;;;;4999785;28;19931;-72
2022/05/12 05:32:13;;;;;;;;;;;12.20;99.90;;;;;;4999724;28;19936;-71
2022/05/12 05:34:39;;;;;;;;;;;12.30;99.90;;;;;;5001608;28;19933;-72
2022/05/12 05:37:10;;;;;;;;;;;12.30;99.90;;;;;;5005591;28;20388;-72
2022/05/12 05:39:36;;;;;;;;;;;12.40;99.90;;;;;;5003607;28;19926;-71
2022/05/12 05:42:05;;;;;;;;;;;12.40;99.90;;;;;;5002240;28;19929;-71
2022/05/12 05:44:32;;;;;;;;;;;12.40;99.90;;;;;;5003767;28;19965;-71
2022/05/12 05:46:59;;;;;;;;;;;12.50;99.90;;;;;;5005063;28;20551;-72
2022/05/12 05:49:27;;;;;;;;;;;12.70;99.90;;;;;;5005757;28;19926;-71
2022/05/12 05:54:39;;;;;;;;;;;14.10;99.90;;;;;;5004238;28;19933;-72
2022/05/12 05:57:06;;;;;;;;;;;15.30;99.90;;;;;;5008715;28;19929;-70
2022/05/12 05:59:33;;;;;;;;;;;16.50;99.90;;;;;;5010049;28;19925;-71
2022/05/12 06:02:00;;;;;;;;;;;17.30;98.70;;;;;;5005394;28;19926;-69
2022/05/12 06:04:27;;;;;;;;;;;17.70;96.20;;;;;;5008896;28;20012;-69
2022/05/12 06:06:53;;;;;;;;;;;18.10;93.30;;;;;;5005237;28;20307;-70
2022/05/12 06:09:20;;;;;;;;;;;17.50;93.00;;;;;;4999793;28;20398;-69
2022/05/12 06:11:48;;;;;;;;;;;16.80;93.40;;;;;;5001635;28;20047;-70
2022/05/12 06:14:15;;;;;;;;;;;16.00;96.00;;;;;;5006116;28;20333;-69
2022/05/12 06:16:42;;;;;;;;;;;15.50;98.30;;;;;;5003755;28;20046;-69
2022/05/12 06:19:09;;;;;;;;;;;15.30;99.50;;;;;;5003856;28;19998;-69
2022/05/12 06:21:36;;;;;;;;;;;15.20;99.90;;;;;;5004276;28;20000;-70
2022/05/12 06:24:04;;;;;;;;;;;14.90;99.90;;;;;;5006179;28;20579;-71
2022/05/12 06:26:30;;;;;;;;;;;14.60;99.90;;;;;;5006297;28;19934;-69
2022/05/12 06:28:58;;;;;;;;;;;14.50;99.90;;;;;;5001151;28;19925;-69
2022/05/12 06:31:29;;;;;;;;;;;14.40;99.90;;;;;;5004272;28;20253;-69
2022/05/12 06:33:57;;;;;;;;;;;14.40;99.90;;;;;;5006625;28;20016;-70
2022/05/12 06:36:23;;;;;;;;;;;14.40;99.90;;;;;;5006079;28;19935;-70
2022/05/12 06:38:50;;;;;;;;;;;14.20;99.90;;;;;;5009379;28;19937;-70
2022/05/12 06:41:17;;;;;;;;;;;14.20;99.90;;;;;;5002403;28;20016;-68
2022/05/12 06:43:45;;;;;;;;;;;14.30;99.90;;;;;;5001162;28;19979;-69
2022/05/12 06:46:15;;;;;;;;;;;14.30;99.90;;;;;;4999867;28;19934;-69
2022/05/12 06:48:42;;;;;;;;;;;14.40;99.90;;;;;;5000263;28;19993;-69
2022/05/12 06:51:11;;;;;;;;;;;15.70;99.90;;;;;;5017421;28;19938;-69
2022/05/12 06:53:38;;;;;;;;;;;18.20;97.80;;;;;;5002469;28;20016;-69
2022/05/12 06:56:05;;;;;;;;;;;20.50;88.00;;;;;;5005236;28;20349;-69
2022/05/12 06:58:31;;;;;;;;;;;22.00;65.10;;;;;;5003536;28;19926;-70
2022/05/12 07:01:00;;;;;;;;;;;22.30;56.20;;;;;;5007763;28;20016;-69
2022/05/12 07:03:29;;;;;;;;;;;23.20;52.60;;;;;;5005124;28;19925;-69
2022/05/12 07:05:56;;;;;;;;;;;24.30;47.50;;;;;;5004910;28;19956;-69
2022/05/12 07:08:22;;;;;;;;;;;24.80;42.80;;;;;;5005746;28;20016;-70
2022/05/12 07:10:49;;;;;;;;;;;24.90;40.70;;;;;;5004669;28;19929;-69
2022/05/12 07:13:19;;;;;;;;;;;24.40;37.80;;;;;;5001094;28;19994;-70
2022/05/12 07:15:47;;;;;;;;;;;24.50;37.60;;;;;;5005231;28;19933;-70
2022/05/12 07:18:14;;;;;;;;;;;24.50;36.00;;;;;;5005471;28;20400;-68
2022/05/12 07:28:55;;;;;;;;;;;24.80;31.20;;;;;;5007802;28;20499;-69
2022/05/12 07:31:22;;;;;;;;;;;23.80;33.20;;;;;;5002404;28;20431;-70
2022/05/12 07:33:49;;;;;;;;;;;22.80;32.20;;;;;;5004877;28;20384;-69
2022/05/12 07:36:20;;;;;;;;;;;21.80;34.70;;;;;;5002933;28;20016;-70
2022/05/12 07:38:47;;;;;;;;;;;22.20;37.00;;;;;;5004568;28;19996;-69
2022/05/12 07:41:14;;;;;;;;;;;23.00;32.50;;;;;;5007323;28;19926;-69
2022/05/12 07:43:41;;;;;;;;;;;23.70;30.80;;;;;;5008011;28;20396;-70
2022/05/12 07:46:08;;;;;;;;;;;23.30;32.10;;;;;;5011340;28;19926;-69
2022/05/12 07:48:35;;;;;;;;;;;24.10;31.70;;;;;;5003676;28;19970;-70
2022/05/12 07:51:02;;;;;;;;;;;25.10;29.60;;;;;;5002218;28;19926;-69
2022/05/12 07:53:30;;;;;;;;;;;25.60;28.30;;;;;;4995478;28;20377;-69
2022/05/12 07:55:56;;;;;;;;;;;26.00;26.80;;;;;;5000628;28;20303;-70
2022/05/12 07:58:23;;;;;;;;;;;25.70;24.60;;;;;;5001270;28;20045;-70
2022/05/12 08:00:50;;;;;;;;;;;24.80;26.20;;;;;;4996969;28;19929;-69
2022/05/12 08:03:17;;;;;;;;;;;25.20;26.10;;;;;;5006375;28;19971;-69
2022/05/12 08:05:44;;;;;;;;;;;25.00;26.50;;;;;;5001757;28;20300;-70
2022/05/12 08:08:11;;;;;;;;;;;25.30;25.20;;;;;;5005643;28;19965;-70
2022/05/12 08:10:39;;;;;;;;;;;25.20;24.30;;;;;;5001562;28;20012;-72
2022/05/12 08:13:14;;;;;;;;;;;25.60;24.30;;;;;;4998457;28;19951;-70
2022/05/12 08:15:41;;;;;;;;;;;26.80;21.90;;;;;;4997189;28;20469;-69
2022/05/12 08:18:08;;;;;;;;;;;26.30;20.40;;;;;;5003704;28;20006;-69
2022/05/12 08:20:35;;;;;;;;;;;26.30;20.90;;;;;;4998700;28;20046;-69
2022/05/12 08:23:02;;;;;;;;;;;26.70;20.80;;;;;;4997667;28;19926;-69
2022/05/12 08:25:29;;;;;;;;;;;26.60;18.80;;;;;;5003821;28;19934;-70
2022/05/12 08:27:57;;;;;;;;;;;26.00;19.40;;;;;;5003157;28;20384;-69
2022/05/12 08:30:25;;;;;;;;;;;26.00;19.80;;;;;;5002632;28;19975;-69
2022/05/12 08:32:52;;;;;;;;;;;26.10;19.60;;;;;;5003389;28;20010;-69
2022/05/12 08:35:19;;;;;;;;;;;25.80;20.30;;;;;;5003907;28;19936;-69
2022/05/12 08:37:45;;;;;;;;;;;24.80;19.40;;;;;;5003460;28;19990;-69
2022/05/12 08:40:15;;;;;;;;;;;24.90;20.60;;;;;;5002314;28;19932;-69
2022/05/12 08:42:44;;;;;;;;;;;25.40;19.60;;;;;;5005749;28;20293;-69
2022/05/12 08:45:13;;;;;;;;;;;23.90;21.00;;;;;;5004502;28;20016;-69
2022/05/12 08:47:43;;;;;;;;;;;23.20;22.80;;;;;;5003170;28;20027;-68
2022/05/12 08:50:13;;;;;;;;;;;24.30;22.60;;;;;;5007385;28;19924;-69
2022/05/12 08:52:44;;;;;;;;;;;24.40;19.90;;;;;;5004623;28;19944;-70
2022/05/12 08:55:13;;;;;;;;;;;23.10;21.50;;;;;;5005860;28;19925;-69
2022/05/12 08:57:43;;;;;;;;;;;22.40;23.20;;;;;;5004836;28;19965;-69
2022/05/12 09:00:11;;;;;;;;;;;22.10;23.40;;;;;;4999771;28;19947;-70
2022/05/12 09:02:43;;;;;;;;;;;21.30;24.20;;;;;;5006639;28;20012;-70
2022/05/12 09:05:11;;;;;;;;;;;22.00;25.30;;;;;;5005957;28;19948;-70
2022/05/12 09:07:44;;;;;;;;;;;22.70;23.80;;;;;;5005149;28;19925;-70
2022/05/12 09:10:26;;;;;;;;;;;23.80;22.60;;;;;;5001197;28;19933;-70
2022/05/12 09:12:59;;;;;;;;;;;23.70;21.80;;;;;;5002907;28;19933;-69
2022/05/12 09:15:27;;;;;;;;;;;22.80;22.90;;;;;;5000382;28;19929;-69
2022/05/12 09:17:56;;;;;;;;;;;22.10;24.10;;;;;;5003925;28;19933;-70
2022/05/12 09:20:23;;;;;;;;;;;21.40;25.20;;;;;;4998696;28;19929;-69
2022/05/12 09:22:50;;;;;;;;;;;20.90;25.20;;;;;;5001411;28;19925;-70
2022/05/12 09:25:29;;;;;;;;;;;21.60;25.90;;;;;;5004150;28;20392;-71
2022/05/12 09:27:58;;;;;;;;;;;21.80;25.90;;;;;;5003410;28;20158;-68
2022/05/12 09:30:31;;;;;;;;;;;21.20;26.50;;;;;;5004513;28;19933;-70
2022/05/12 09:33:00;;;;;;;;;;;21.60;26.20;;;;;;5004488;28;19982;-70
2022/05/12 09:35:27;;;;;;;;;;;22.00;25.00;;;;;;5005608;28;20383;-71
2022/05/12 09:37:55;;;;;;;;;;;22.10;25.80;;;;;;5001371;28;19974;-69
2022/05/12 09:40:23;;;;;;;;;;;21.30;25.20;;;;;;5005997;28;20016;-69
2022/05/12 09:42:51;;;;;;;;;;;21.60;25.20;;;;;;5006111;28;20016;-70
2022/05/12 09:45:23;;;;;;;;;;;21.00;26.20;;;;;;5004247;28;20380;-69
2022/05/12 09:47:49;;;;;;;;;;;20.50;26.80;;;;;;5008786;28;19936;-69
2022/05/12 09:50:23;;;;;;;;;;;20.20;27.30;;;;;;5003271;28;20111;-69
2022/05/12 09:52:58;;;;;;;;;;;20.70;27.50;;;;;;5007032;28;19926;-70
2022/05/12 09:55:27;;;;;;;;;;;21.20;25.10;;;;;;5006793;28;19930;-70
2022/05/12 09:57:55;;;;;;;;;;;22.00;24.70;;;;;;5007318;28;19936;-73
2022/05/12 10:00:25;;;;;;;;;;;21.50;26.00;;;;;;5004063;28;20415;-69
2022/05/12 10:08:27;;;;;;;;;;;21.60;24.80;;;;;;5003279;28;19940;-70
2022/05/12 10:10:58;;;;;;;;;;;20.80;25.50;;;;;;5003970;28;19926;-70
2022/05/12 10:13:31;;;;;;;;;;;20.60;25.40;;;;;;5003855;28;20317;-70
2022/05/12 10:15:58;;;;;;;;;;;20.40;25.90;;;;;;5008696;28;20373;-70
2022/05/12 10:18:28;;;;;;;;;;;20.40;26.10;;;;;;5005760;28;20017;-70
2022/05/12 10:21:03;;;;;;;;;;;20.90;26.10;;;;;;5006319;28;20249;-71
2022/05/12 10:23:32;;;;;;;;;;;21.10;25.50;;;;;;5001889;28;19925;-70
2022/05/12 10:26:02;;;;;;;;;;;20.80;25.80;;;;;;5004195;28;20388;-70
2022/05/12 10:28:34;;;;;;;;;;;20.50;26.90;;;;;;5005374;28;20008;-69
2022/05/12 10:31:07;;;;;;;;;;;20.30;26.80;;;;;;5003399;28;19932;-70
2022/05/12 10:33:44;;;;;;;;;;;20.00;27.90;;;;;;5003042;28;19978;-70
2022/05/12 10:36:18;;;;;;;;;;;20.00;27.60;;;;;;5006104;28;19925;-70
2022/05/12 10:38:47;;;;;;;;;;;20.00;27.50;;;;;;5002483;28;19937;-70
2022/05/12 10:41:17;;;;;;;;;;;20.30;27.70;;;;;;5000067;28;20021;-68
2022/05/12 10:43:48;;;;;;;;;;;20.60;25.50;;;;;;5004448;28;20016;-68
2022/05/12 10:46:19;;;;;;;;;;;20.30;24.00;;;;;;5006438;28;19932;-68
2022/05/12 10:48:49;;;;;;;;;;;20.40;24.40;;;;;;5007821;28;19932;-68
2022/05/12 10:51:23;;;;;;;;;;;20.70;24.30;;;;;;5004919;28;20398;-68
2022/05/12 10:53:57;;;;;;;;;;;20.90;24.20;;;;;;5004127;28;19926;-68
2022/05/12 10:56:29;;;;;;;;;;;20.70;24.90;;;;;;5005327;28;19926;-69
2022/05/12 10:59:01;;;;;;;;;;;20.50;23.90;;;;;;5007548;28;19944;-69
2022/05/12 11:01:32;;;;;;;;;;;20.30;24.10;;;;;;5005454;28;20399;-68
2022/05/12 11:04:00;;;;;;;;;;;20.60;24.60;;;;;;5009034;28;19977;-69
2022/05/12 11:06:31;;;;;;;;;;;20.80;23.50;;;;;;5005391;28;19929;-68
2022/05/12 11:09:00;;;;;;;;;;;20.70;24.00;;;;;;5008452;28;19931;-68
2022/05/12 11:11:28;;;;;;;;;;;20.70;24.00;;;;;;5003013;28;19940;-69
2022/05/12 11:13:59;;;;;;;;;;;20.80;24.60;;;;;;5007359;28;20034;-68
2022/05/12 11:16:26;;;;;;;;;;;21.20;24.20;;;;;;4996638;28;19933;-70
2022/05/12 11:18:58;;;;;;;;;;;21.10;21.30;;;;;;5003671;28;19926;-69
2022/05/12 11:21:27;;;;;;;;;;;20.80;20.90;;;;;;5004093;28;19964;-68
2022/05/12 11:24:00;;;;;;;;;;;20.70;20.80;;;;;;5005868;28;19949;-68
2022/05/12 11:26:48;;;;;;;;;;;20.30;22.20;;;;;;5000686;28;19961;-68
2022/05/12 11:32:08;;;;;;;;;;;20.50;22.90;;;;;;5003470;28;19937;-69
2022/05/12 11:34:36;;;;;;;;;;;20.60;23.20;;;;;;4999983;28;19925;-68
2022/05/12 11:37:27;;;;;;;;;;;20.90;23.20;;;;;;5003732;28;19925;-68
2022/05/12 11:39:56;;;;;;;;;;;20.70;23.00;;;;;;5001849;28;20320;-69
2022/05/12 11:42:24;;;;;;;;;;;20.80;22.40;;;;;;5006612;28;20284;-69
2022/05/12 11:45:01;;;;;;;;;;;20.80;22.10;;;;;;5005593;28;19937;-69
2022/05/12 11:47:52;;;;;;;;;;;20.90;22.20;;;;;;5005734;28;20016;-68
2022/05/12 11:50:26;;;;;;;;;;;20.60;20.90;;;;;;4988581;28;20308;-68
2022/05/12 11:52:59;;;;;;;;;;;20.90;21.50;;;;;;5002290;28;19936;-69
2022/05/12 11:55:28;;;;;;;;;;;21.40;20.40;;;;;;5004764;28;19925;-68
2022/05/12 11:58:04;;;;;;;;;;;21.10;20.20;;;;;;5005379;28;21836;-67
2022/05/12 12:00:50;;;;;;;;;;;20.80;20.10;;;;;;5004017;28;19932;-68
2022/05/12 12:03:35;;;;;;;;;;;20.50;20.20;;;;;;5003230;28;20020;-69
2022/05/12 12:06:03;;;;;;;;;;;21.00;20.20;;;;;;5004287;28;19933;-68
2022/05/12 12:08:41;;;;;;;;;;;21.00;19.30;;;;;;5006232;28;19961;-68
2022/05/12 12:11:26;;;;;;;;;;;21.10;19.50;;;;;;5003816;28;20347;-69
2022/05/12 12:13:53;;;;;;;;;;;21.30;19.00;;;;;;5001477;28;19936;-70
2022/05/12 12:16:21;;;;;;;;;;;21.10;20.10;;;;;;5003127;28;19978;-69
2022/05/12 12:18:49;;;;;;;;;;;21.00;19.00;;;;;;5002282;28;20020;-69
2022/05/12 12:21:49;;;;;;;;;;;21.30;19.60;;;;;;5004398;28;19934;-69
2022/05/12 12:24:34;;;;;;;;;;;21.20;19.00;;;;;;5005656;28;19925;-66
2022/05/12 12:27:16;;;;;;;;;;;21.20;18.90;;;;;;5004967;28;19926;-67
2022/05/12 12:29:45;;;;;;;;;;;21.20;19.90;;;;;;5001402;28;20533;-68
2022/05/12 12:32:29;;;;;;;;;;;21.70;19.30;;;;;;5003652;28;19925;-66
2022/05/12 12:34:57;;;;;;;;;;;22.10;18.60;;;;;;5002573;28;19978;-68
2022/05/12 12:37:41;;;;;;;;;;;22.10;17.90;;;;;;5000855;28;19960;-69
2022/05/12 12:40:22;;;;;;;;;;;22.00;18.70;;;;;;5002015;28;20419;-68
2022/05/12 12:42:49;;;;;;;;;;;21.60;18.90;;;;;;5002933;28;19960;-69
2022/05/12 12:45:18;;;;;;;;;;;21.70;19.60;;;;;;5005957;28;19944;-68
2022/05/12 12:47:49;;;;;;;;;;;21.90;19.10;;;;;;5002117;28;19925;-68
2022/05/12 12:50:23;;;;;;;;;;;22.00;19.00;;;;;;5002308;28;20367;-67
2022/05/12 12:52:51;;;;;;;;;;;22.20;15.90;;;;;;5005501;28;20315;-67
2022/05/12 12:58:03;;;;;;;;;;;22.60;15.60;;;;;;5004208;28;19933;-67
2022/05/12 13:00:34;;;;;;;;;;;22.20;15.60;;;;;;5001965;28;20020;-68
2022/05/12 13:03:02;;;;;;;;;;;22.00;16.90;;;;;;5004340;28;19929;-66
2022/05/12 13:05:29;;;;;;;;;;;22.10;17.40;;;;;;5001366;28;20027;-66
2022/05/12 13:07:57;;;;;;;;;;;22.20;17.00;;;;;;5005859;28;20033;-66
2022/05/12 13:10:24;;;;;;;;;;;22.20;17.10;;;;;;5004481;28;20008;-66
2022/05/12 13:12:52;;;;;;;;;;;21.60;17.80;;;;;;5004623;28;19961;-65
2022/05/12 13:15:20;;;;;;;;;;;21.60;18.10;;;;;;5004181;28;20024;-66
2022/05/12 13:17:51;;;;;;;;;;;21.90;18.30;;;;;;4998820;28;19929;-66
2022/05/12 13:20:19;;;;;;;;;;;21.80;17.80;;;;;;5002111;28;19940;-66
2022/05/12 13:22:46;;;;;;;;;;;21.60;18.50;;;;;;5006038;28;20412;-68
2022/05/12 13:25:16;;;;;;;;;;;21.70;18.30;;;;;;5003143;28;19951;-68
2022/05/12 13:27:43;;;;;;;;;;;21.70;18.80;;;;;;5005152;28;20358;-67
2022/05/12 13:30:13;;;;;;;;;;;21.80;18.70;;;;;;4999691;28;19934;-67
2022/05/12 13:32:45;;;;;;;;;;;21.80;18.30;;;;;;5004815;28;20012;-67
2022/05/12 13:35:17;;;;;;;;;;;22.00;18.70;;;;;;5002267;28;20308;-66
2022/05/12 13:37:45;;;;;;;;;;;21.80;18.30;;;;;;5000187;28;19936;-68
2022/05/12 13:40:32;;;;;;;;;;;21.60;18.40;;;;;;5002287;28;20424;-66
2022/05/12 13:42:59;;;;;;;;;;;21.50;18.90;;;;;;5004419;28;20021;-67
2022/05/12 13:45:31;;;;;;;;;;;21.70;18.80;;;;;;4999843;28;19926;-67
2022/05/12 13:47:59;;;;;;;;;;;21.90;18.40;;;;;;5002957;28;19940;-70
2022/05/12 13:50:38;;;;;;;;;;;22.10;18.20;;;;;;4997016;28;19965;-69
2022/05/12 13:53:05;;;;;;;;;;;22.10;18.10;;;;;;5001558;28;19933;-69
2022/05/12 13:55:33;;;;;;;;;;;22.30;18.40;;;;;;5001104;28;19925;-70
2022/05/12 13:58:12;;;;;;;;;;;22.40;18.00;;;;;;4999923;28;19926;-67
2022/05/12 14:00:40;;;;;;;;;;;22.10;18.30;;;;;;4993260;28;19945;-68
2022/05/12 14:03:15;;;;;;;;;;;22.10;18.00;;;;;;4997935;28;19940;-69
2022/05/12 14:05:44;;;;;;;;;;;22.20;18.50;;;;;;5007098;28;19926;-69
2022/05/12 14:08:13;;;;;;;;;;;22.30;18.40;;;;;;5000417;28;20379;-69
2022/05/12 14:10:41;;;;;;;;;;;22.50;17.80;;;;;;4997320;28;20436;-69
2022/05/12 14:21:31;;;;;;;;;;;22.30;18.50;;;;;;5001831;28;20010;-69
2022/05/12 14:23:59;;;;;;;;;;;22.10;18.70;;;;;;5001577;28;19933;-68
2022/05/12 14:26:26;;;;;;;;;;;22.00;18.70;;;;;;5004866;28;20376;-68
2022/05/12 14:28:53;;;;;;;;;;;22.00;18.80;;;;;;5005242;28;20285;-67
2022/05/12 14:31:21;;;;;;;;;;;22.30;18.60;;;;;;5003542;28;19930;-70
2022/05/12 14:33:48;;;;;;;;;;;22.40;18.80;;;;;;5004049;28;19926;-69
2022/05/12 14:36:15;;;;;;;;;;;22.30;18.00;;;;;;5006195;28;20082;-68
2022/05/12 14:38:47;;;;;;;;;;;22.00;18.40;;;;;;5003523;28;20008;-68
2022/05/12 14:41:14;;;;;;;;;;;21.80;18.70;;;;;;5005594;28;19932;-70
2022/05/12 14:43:41;;;;;;;;;;;21.80;19.60;;;;;;5006703;28;20369;-68
2022/05/12 14:46:09;;;;;;;;;;;21.70;18.70;;;;;;5005582;28;20340;-68
2022/05/12 14:48:37;;;;;;;;;;;21.40;19.00;;;;;;5004542;28;19936;-68
2022/05/12 14:51:05;;;;;;;;;;;21.40;19.70;;;;;;5004799;28;19933;-69
2022/05/12 14:53:32;;;;;;;;;;;21.60;19.80;;;;;;5006184;28;19926;-69
2022/05/12 14:56:00;;;;;;;;;;;21.70;19.20;;;;;;5005210;28;19969;-69
2022/05/12 14:58:26;;;;;;;;;;;21.80;19.60;;;;;;5000114;28;19925;-69
2022/05/12 15:00:53;;;;;;;;;;;22.10;19.80;;;;;;4997057;28;19933;-69
2022/05/12 15:03:20;;;;;;;;;;;22.20;19.80;;;;;;4992334;28;20405;-69